Time;durP1;ratioP1;P1;durP2;ratioP2;P2;SDS_P1;SDS_P2;PMS_P1;PMS_P2;Temp;Humidity;BMP_temperature;BMP_pressure;BME280_temperature;BME280_humidity;BME280_pressure;Samples;Min_cycle;Max_cycle;Signal;HPM_P1;HPM_P2
2022/03/30 00:01:33;;;;;;;20.15;12.73;;;;;;;6.78;71.76;100788.72;4682428;30;20066;-79
2022/03/30 00:04:21;;;;;;;21.02;12.93;;;;;;;6.90;71.82;100818.13;4667940;30;20030;-78
2022/03/30 00:06:46;;;;;;;21.58;12.90;;;;;;;6.37;72.13;100743.69;4682011;30;20052;-80
2022/03/30 00:09:12;;;;;;;20.75;13.90;;;;;;;6.40;72.36;100746.13;4666541;30;20556;-79
2022/03/30 00:11:37;;;;;;;20.23;13.15;;;;;;;6.42;72.29;100764.84;4681979;30;20045;-79
2022/03/30 00:14:02;;;;;;;24.85;14.95;;;;;;;6.67;72.58;100811.50;4682165;30;20030;-77
2022/03/30 00:16:28;;;;;;;23.02;14.07;;;;;;;6.46;73.18;100790.25;4682059;30;20034;-82
2022/03/30 00:18:53;;;;;;;24.15;14.25;;;;;;;6.38;73.50;100774.38;4668217;30;20033;-87
2022/03/30 00:21:19;;;;;;;21.20;13.82;;;;;;;6.32;73.86;100770.38;4666527;30;20125;-77
2022/03/30 00:23:44;;;;;;;22.67;12.77;;;;;;;6.38;74.00;100792.34;4681843;30;20041;-79
2022/03/30 00:26:09;;;;;;;23.27;14.38;;;;;;;5.72;74.34;100695.34;4681690;30;20034;-78
2022/03/30 00:28:35;;;;;;;22.42;13.75;;;;;;;6.00;74.56;100753.91;4682123;30;20064;-80
2022/03/30 00:31:00;;;;;;;22.27;13.27;;;;;;;5.82;74.94;100743.63;4682264;30;20377;-77
2022/03/30 00:33:26;;;;;;;23.23;13.95;;;;;;;6.12;75.75;100806.34;4684412;30;20088;-80
2022/03/30 00:35:51;;;;;;;22.15;14.18;;;;;;;5.91;75.77;100789.38;4684845;30;20065;-79
2022/03/30 00:38:18;;;;;;;25.30;15.02;;;;;;;5.98;76.42;100814.66;4684672;30;20503;-78
2022/03/30 00:40:43;;;;;;;21.45;13.77;;;;;;;5.84;76.17;100798.19;4669221;30;20034;-78
2022/03/30 00:43:16;;;;;;;21.33;13.52;;;;;;;5.44;76.45;100738.44;4684412;30;20038;-79
2022/03/30 00:45:42;;;;;;;24.05;14.68;;;;;;;5.17;76.81;100715.66;4684507;30;20045;-82
2022/03/30 00:48:19;;;;;;;24.50;14.23;;;;;;;5.46;76.92;100768.19;4684398;30;20131;-81
2022/03/30 00:50:44;;;;;;;25.15;15.18;;;;;;;5.35;77.18;100761.88;4684302;30;20187;-81
2022/03/30 00:53:12;;;;;;;23.17;14.30;;;;;;;5.34;77.82;100773.03;4684328;30;20124;-83
2022/03/30 00:55:37;;;;;;;24.38;14.82;;;;;;;5.27;77.88;100779.28;4684512;30;20113;-79
2022/03/30 00:58:05;;;;;;;23.02;13.98;;;;;;;5.34;78.05;100801.19;4684391;30;20452;-79
2022/03/30 01:00:30;;;;;;;26.20;15.07;;;;;;;5.05;78.37;100769.94;4684377;30;20594;-80
2022/03/30 01:02:56;;;;;;;26.95;14.60;;;;;;;5.21;78.49;100800.88;4684414;30;20053;-79
2022/03/30 01:05:22;;;;;;;27.83;15.68;;;;;;;5.05;78.98;100787.03;4684256;30;20041;-80
2022/03/30 01:07:47;;;;;;;24.67;14.77;;;;;;;4.72;78.96;100736.31;4684153;30;20034;-78
2022/03/30 01:10:15;;;;;;;25.35;15.00;;;;;;;4.69;79.45;100740.72;4684294;30;20034;-79
2022/03/30 01:12:41;;;;;;;24.67;14.93;;;;;;;4.97;79.41;100789.06;4684380;30;20041;-78
2022/03/30 01:15:09;;;;;;;24.10;14.88;;;;;;;4.90;79.67;100785.91;4668714;30;20042;-83
2022/03/30 01:17:35;;;;;;;22.52;15.15;;;;;;;4.85;79.93;100780.97;4684396;30;20034;-79
2022/03/30 01:20:00;;;;;;;29.83;15.48;;;;;;;4.63;80.30;100748.66;4684097;30;20499;-78
2022/03/30 01:22:26;;;;;;;22.38;14.23;;;;;;;4.78;80.60;100779.56;4684137;30;20088;-81
2022/03/30 01:24:52;;;;;;;23.52;15.45;;;;;;;4.50;80.42;100738.06;4684189;30;20034;-79
2022/03/30 01:27:17;;;;;;;26.88;15.85;;;;;;;4.67;80.43;100765.53;4668593;30;20547;-78
2022/03/30 01:32:28;;;;;;;27.83;16.23;;;;;;;4.60;81.02;100776.00;4684445;30;20061;-78
2022/03/30 01:34:59;;;;;;;28.70;15.75;;;;;;;4.43;81.45;100752.00;4682575;30;20500;-86
2022/03/30 01:37:28;;;;;;;26.02;14.90;;;;;;;4.27;81.27;100736.41;4683780;30;20518;-79
2022/03/30 01:39:57;;;;;;;28.65;15.70;;;;;;;4.14;81.91;100720.72;4683903;30;20042;-78
2022/03/30 01:42:26;;;;;;;27.05;15.93;;;;;;;4.29;81.83;100752.50;4682983;30;20069;-78
2022/03/30 01:44:54;;;;;;;28.33;15.43;;;;;;;4.07;81.79;100719.25;4683725;30;20039;-77
2022/03/30 01:47:26;;;;;;;24.70;15.18;;;;;;;3.97;82.27;100712.84;4683955;30;20061;-78
2022/03/30 01:50:02;;;;;;;27.02;15.60;;;;;;;3.97;82.45;100711.09;4682296;30;20037;-78
2022/03/30 01:52:27;;;;;;;24.23;15.85;;;;;;;4.36;82.01;100765.88;4683493;30;20080;-78
2022/03/30 01:54:53;;;;;;;25.13;15.60;;;;;;;4.34;82.23;100758.28;4683781;30;20034;-78
2022/03/30 01:57:18;;;;;;;23.55;15.98;;;;;;;4.27;82.45;100751.72;4683636;30;20034;-78
2022/03/30 01:59:44;;;;;;;29.63;16.05;;;;;;;4.02;82.71;100711.75;4683642;30;20034;-78
2022/03/30 02:02:11;;;;;;;28.83;15.82;;;;;;;4.02;82.63;100716.88;4683388;30;20037;-78
2022/03/30 02:04:39;;;;;;;27.23;15.00;;;;;;;4.17;82.74;100730.81;4683364;30;20128;-78
2022/03/30 02:07:08;;;;;;;25.48;15.50;;;;;;;3.81;82.74;100673.41;4683004;30;20062;-78
2022/03/30 02:09:39;;;;;;;25.90;16.08;;;;;;;4.19;82.67;100743.50;4683366;30;20033;-78
2022/03/30 02:12:08;;;;;;;29.38;15.88;;;;;;;3.99;83.55;100718.72;4683535;30;20030;-78
2022/03/30 02:14:35;;;;;;;27.75;15.70;;;;;;;3.69;83.48;100679.81;4683289;30;20149;-78
2022/03/30 02:17:00;;;;;;;30.83;16.05;;;;;;;3.78;83.32;100699.91;4683410;30;20112;-78
2022/03/30 02:19:25;;;;;;;27.30;16.50;;;;;;;4.06;83.78;100738.03;4667377;30;20122;-78
2022/03/30 02:21:51;;;;;;;27.20;15.93;;;;;;;3.74;83.47;100685.59;4682871;30;20061;-78
2022/03/30 02:24:16;;;;;;;24.80;15.35;;;;;;;3.92;83.92;100701.94;4683232;30;20073;-78
2022/03/30 02:26:42;;;;;;;29.13;16.58;;;;;;;4.06;83.69;100719.31;4683168;30;20109;-78
2022/03/30 02:29:08;;;;;;;24.42;16.10;;;;;;;3.91;83.44;100688.34;4683157;30;20034;-77
2022/03/30 02:31:34;;;;;;;25.42;15.85;;;;;;;3.88;83.57;100673.13;4683100;30;20103;-81
2022/03/30 02:34:00;;;;;;;26.20;15.73;;;;;;;4.16;83.62;100706.13;4681698;30;20093;-78
2022/03/30 02:36:25;;;;;;;28.33;15.07;;;;;;;4.18;83.30;100718.84;4682698;30;20559;-78
2022/03/30 02:38:50;;;;;;;24.42;15.18;;;;;;;3.93;83.38;100675.50;4683138;30;20034;-78
2022/03/30 02:41:16;;;;;;;29.73;15.93;;;;;;;3.56;83.69;100612.22;4681562;30;20495;-77
2022/03/30 02:43:41;;;;;;;28.67;16.52;;;;;;;3.92;83.57;100671.28;4667302;30;20034;-78
2022/03/30 02:46:07;;;;;;;26.38;15.48;;;;;;;3.71;83.43;100630.34;4682996;30;20037;-79
2022/03/30 02:48:37;;;;;;;26.17;15.10;;;;;;;4.01;83.39;100683.72;4682882;30;20041;-78
2022/03/30 02:51:05;;;;;;;30.42;16.42;;;;;;;3.67;83.92;100626.25;4682316;30;20073;-78
2022/03/30 02:53:32;;;;;;;29.05;16.00;;;;;;;3.81;84.04;100647.88;4682397;30;20508;-78
2022/03/30 02:55:58;;;;;;;29.77;16.70;;;;;;;3.99;84.03;100675.28;4682892;30;20387;-76
2022/03/30 02:58:27;;;;;;;25.80;15.52;;;;;;;4.09;83.96;100697.03;4682878;30;20037;-79
2022/03/30 03:00:56;;;;;;;26.98;15.13;;;;;;;3.86;83.78;100654.50;4682574;30;20403;-78
2022/03/30 03:03:22;;;;;;;27.27;15.63;;;;;;;3.92;84.02;100674.66;4682633;30;20062;-78
2022/03/30 03:05:47;;;;;;;28.67;16.27;;;;;;;3.86;83.97;100671.53;4682120;30;20034;-77
2022/03/30 03:08:13;;;;;;;29.88;16.25;;;;;;;3.83;84.33;100669.91;4682357;30;20447;-78
2022/03/30 03:10:42;;;;;;;28.42;16.83;;;;;;;3.92;84.75;100689.16;4682623;30;20093;-79
2022/03/30 03:13:11;;;;;;;26.33;15.63;;;;;;;3.83;85.03;100684.41;4682461;30;20120;-78
2022/03/30 03:15:37;;;;;;;28.52;16.05;;;;;;;3.76;85.23;100673.59;4682439;30;20108;-79
2022/03/30 03:18:39;;;;;;;29.73;16.90;;;;;;;3.23;85.45;100591.31;4682255;30;20488;-78
2022/03/30 03:21:20;;;;;;;28.98;17.30;;;;;;;3.45;85.03;100618.56;4682299;30;20048;-78
2022/03/30 03:24:04;;;;;;;25.77;15.45;;;;;;;3.84;84.89;100681.81;4666595;30;20411;-80
2022/03/30 03:26:48;;;;;;;29.73;16.90;;;;;;;3.40;85.00;100605.13;4682450;30;20026;-80
2022/03/30 03:29:24;;;;;;;26.35;16.33;;;;;;;3.35;85.21;100601.09;4682564;30;20034;-79
2022/03/30 03:31:49;;;;;;;27.88;16.25;;;;;;;3.83;85.43;100674.19;4682191;30;20534;-78
2022/03/30 03:34:14;;;;;;;26.88;15.38;;;;;;;3.71;85.54;100662.72;4682188;30;20034;-81
2022/03/30 03:36:40;;;;;;;28.48;15.68;;;;;;;3.72;85.56;100674.59;4682147;30;20106;-78
2022/03/30 03:39:05;;;;;;;28.63;16.15;;;;;;;3.49;85.90;100644.81;4682240;30;20038;-78
2022/03/30 03:41:34;;;;;;;30.15;16.23;;;;;;;3.60;86.09;100663.13;4682081;30;20034;-80
2022/03/30 03:44:03;;;;;;;29.42;16.08;;;;;;;3.50;86.23;100646.47;4682321;30;20495;-80
2022/03/30 03:46:29;;;;;;;28.77;16.35;;;;;;;3.43;86.43;100635.63;4680717;30;20109;-79
2022/03/30 03:48:55;;;;;;;31.30;18.10;;;;;;;3.58;86.15;100664.91;4666612;30;20492;-81
2022/03/30 03:51:20;;;;;;;29.63;16.25;;;;;;;3.12;86.66;100597.63;4681842;30;20055;-78
2022/03/30 03:53:45;;;;;;;31.50;17.05;;;;;;;3.51;86.50;100658.34;4681818;30;20034;-78
2022/03/30 03:56:11;;;;;;;31.30;16.17;;;;;;;3.46;86.48;100660.25;4666581;30;20116;-78
2022/03/30 03:58:36;;;;;;;31.08;16.52;;;;;;;3.23;86.57;100635.53;4682018;30;20069;-78
2022/03/30 04:01:01;;;;;;;29.10;17.23;;;;;;;3.32;87.13;100655.63;4681968;30;20034;-80
2022/03/30 04:03:27;;;;;;;28.55;16.38;;;;;;;2.79;87.10;100584.38;4682486;30;20042;-78
2022/03/30 04:05:52;;;;;;;27.35;16.73;;;;;;;2.68;87.36;100577.97;4682511;30;20057;-79
2022/03/30 04:08:20;;;;;;;30.08;16.48;;;;;;;3.05;87.71;100636.19;4669807;30;20499;-78
2022/03/30 04:10:46;;;;;;;28.75;17.63;;;;;;;2.73;87.51;100601.59;4683732;30;20262;-79
2022/03/30 04:13:12;;;;;;;29.25;16.30;;;;;;;3.03;87.88;100660.91;4685092;30;20038;-78
2022/03/30 04:15:40;;;;;;;30.60;16.58;;;;;;;2.76;88.54;100625.28;4685265;30;20034;-78
2022/03/30 04:18:07;;;;;;;30.80;16.80;;;;;;;2.28;88.70;100549.56;4685221;30;20034;-80
2022/03/30 04:20:33;;;;;;;29.33;16.02;;;;;;;2.57;88.85;100609.78;4685316;30;20034;-87
2022/03/30 04:23:01;;;;;;;31.27;17.00;;;;;;;2.81;89.19;100653.16;4684932;30;20136;-77
2022/03/30 04:25:27;;;;;;;28.23;16.58;;;;;;;2.66;89.10;100641.78;4685042;30;20396;-78
2022/03/30 04:27:54;;;;;;;28.80;16.35;;;;;;;2.36;89.06;100597.75;4684889;30;20044;-78
2022/03/30 04:30:22;;;;;;;26.58;15.70;;;;;;;2.38;89.67;100600.22;4685137;30;20041;-78
2022/03/30 04:32:47;;;;;;;26.50;17.20;;;;;;;2.48;90.02;100617.72;4685083;30;20033;-78
2022/03/30 04:35:18;;;;;;;30.65;16.25;;;;;;;2.47;90.07;100620.31;4683485;30;20069;-79
2022/03/30 04:37:43;;;;;;;31.83;17.52;;;;;;;2.54;89.97;100634.50;4684710;30;20109;-78
2022/03/30 04:40:09;;;;;;;32.63;16.52;;;;;;;2.46;90.04;100626.28;4684719;30;20376;-79
2022/03/30 04:42:35;;;;;;;28.48;17.13;;;;;;;2.04;89.96;100565.66;4684549;30;20030;-80
2022/03/30 04:45:00;;;;;;;31.00;17.63;;;;;;;2.46;90.24;100644.13;4685027;30;20475;-78
2022/03/30 04:47:26;;;;;;;28.23;16.70;;;;;;;2.22;90.59;100618.56;4684948;30;20037;-78
2022/03/30 04:49:52;;;;;;;36.03;17.88;;;;;;;2.19;90.67;100616.13;4684635;30;20458;-78
2022/03/30 05:08:58;;;;;;;33.95;16.80;;;;;;;1.08;91.70;100479.53;4684305;30;20045;-76
2022/03/30 05:11:24;;;;;;;30.13;17.67;;;;;;;1.95;91.83;100617.69;4684497;30;20365;-77
2022/03/30 05:13:51;;;;;;;28.23;17.42;;;;;;;2.11;91.79;100648.63;4684290;30;20037;-77
2022/03/30 05:16:17;;;;;;;32.08;17.85;;;;;;;2.06;92.16;100639.44;4684202;30;20030;-77
2022/03/30 05:18:42;;;;;;;29.80;17.83;;;;;;;1.81;92.46;100608.81;4684100;30;20037;-78
2022/03/30 05:21:08;;;;;;;30.80;17.77;;;;;;;2.03;92.44;100640.38;4684170;30;20091;-78
2022/03/30 05:23:36;;;;;;;29.88;17.98;;;;;;;1.98;92.64;100632.06;4682146;30;20112;-78
2022/03/30 05:26:04;;;;;;;33.40;17.02;;;;;;;1.71;92.76;100591.28;4682416;30;20118;-78
2022/03/30 05:28:30;;;;;;;32.25;17.45;;;;;;;1.82;92.71;100605.41;4684066;30;20065;-79
2022/03/30 05:30:55;;;;;;;37.13;18.15;;;;;;;1.99;92.50;100631.19;4683809;30;20058;-80
2022/03/30 05:33:23;;;;;;;31.90;16.67;;;;;;;1.80;92.75;100604.63;4684254;30;20034;-79
2022/03/30 05:35:51;;;;;;;35.20;17.73;;;;;;;2.09;93.03;100642.75;4683903;30;20042;-79
2022/03/30 05:38:51;;;;;;;30.00;16.30;;;;;;;2.11;92.67;100635.88;4683876;30;20034;-76
2022/03/30 05:41:47;;;;;;;33.58;17.77;;;;;;;2.14;92.40;100640.88;4683644;30;20046;-80
2022/03/30 05:44:37;;;;;;;30.40;16.98;;;;;;;2.15;92.47;100637.44;4683967;30;20030;-77
2022/03/30 05:48:08;;;;;;;;;;;;;;;;;;;;;
2022/03/30 05:54:29;;;;;;;31.83;17.20;;;;;;;2.33;92.13;100643.69;4666225;30;20069;-77
2022/03/30 05:59:58;;;;;;;34.30;16.67;;;;;;;2.49;91.84;100636.38;3943721;28;20525;-78
2022/03/30 06:02:27;;;;;;;34.65;17.70;;;;;;;2.21;91.62;100572.75;4648985;30;20047;-78
2022/03/30 06:04:58;;;;;;;31.50;17.92;;;;;;;2.41;91.03;100590.75;4649468;30;20043;-81
2022/03/30 06:07:24;;;;;;;33.13;17.50;;;;;;;2.42;90.89;100578.84;4647948;30;20489;-79
2022/03/30 06:09:49;;;;;;;29.50;16.48;;;;;;;2.04;90.25;100504.53;4649193;30;20114;-77
2022/03/30 06:12:36;;;;;;;29.70;17.10;;;;;;;2.91;90.16;100644.31;4649198;30;20042;-78
2022/03/30 06:15:38;;;;;;;33.47;18.33;;;;;;;1.62;89.93;100443.13;4649062;30;20045;-78
2022/03/30 06:21:37;;;;;;;30.98;16.25;;;;;;;2.65;89.42;100578.91;4649184;30;20133;-78
2022/03/30 06:24:10;;;;;;;29.48;16.35;;;;;;;2.28;89.19;100497.78;4633706;30;20121;-78
2022/03/30 06:26:43;;;;;;;30.73;16.58;;;;;;;2.71;88.56;100557.47;4648853;30;20030;-78
2022/03/30 06:29:12;;;;;;;29.17;16.05;;;;;;;2.31;88.29;100444.16;4633122;30;20046;-77
2022/03/30 06:31:57;;;;;;;30.45;16.52;;;;;;;3.58;86.32;100513.44;4648804;30;20492;-75
2022/03/30 06:35:13;;;;;;;25.17;16.15;;;;;;;5.32;83.51;100641.69;4648804;30;20481;-78
2022/03/30 06:37:38;;;;;;;29.85;14.70;;;;;;;5.20;78.16;100448.47;4648790;30;20126;-81
2022/03/30 06:40:07;;;;;;;27.13;15.23;;;;;;;5.63;75.13;100442.16;4648639;30;20107;-78
2022/03/30 06:42:33;;;;;;;27.20;14.95;;;;;;;7.41;72.90;100639.22;4648880;30;20047;-77
2022/03/30 06:48:09;;;;;;;23.17;13.60;;;;;;;7.15;70.58;100476.25;4649021;30;20054;-79
2022/03/30 06:54:00;;;;;;;25.75;14.10;;;;;;;8.13;65.87;100596.72;4649022;30;20074;-85
2022/03/30 07:03:39;;;;;;;23.25;13.70;;;;;;;8.94;66.61;100634.06;4630117;30;20107;-81
2022/03/30 07:11:48;;;;;;;22.45;14.05;;;;;;;9.67;62.22;100628.78;4648527;30;20116;-76
2022/03/30 07:14:14;;;;;;;22.20;13.20;;;;;;;9.02;62.71;100600.13;4648547;30;20034;-76
2022/03/30 07:16:39;;;;;;;21.90;13.23;;;;;;;8.19;64.98;100629.84;4647901;30;20057;-79
2022/03/30 07:23:03;;;;;;;20.42;12.57;;;;;;;6.78;71.00;100633.91;4595565;31;20052;-77
2022/03/30 07:29:33;;;;;;;25.75;14.60;;;;;;;6.13;73.92;100631.13;4596354;31;20134;-77
2022/03/30 07:31:58;;;;;;;26.63;15.68;;;;;;;5.99;75.38;100626.63;4596018;31;20048;-80
2022/03/30 07:34:26;;;;;;;28.45;15.55;;;;;;;5.83;75.67;100604.34;4597854;31;20040;-83
2022/03/30 07:36:54;;;;;;;24.33;14.00;;;;;;;5.76;75.79;100591.81;4596391;31;20052;-75
2022/03/30 07:39:19;;;;;;;23.77;14.07;;;;;;;5.96;75.96;100636.22;4597375;31;20072;-76
2022/03/30 07:41:47;;;;;;;27.83;15.73;;;;;;;5.70;75.73;100601.50;4599169;31;20064;-76
2022/03/30 07:44:13;;;;;;;26.40;13.90;;;;;;;5.98;76.36;100632.66;4599864;31;20487;-86
2022/03/30 07:46:49;;;;;;;27.23;15.10;;;;;;;5.72;76.92;100568.97;4599727;31;20047;-81
2022/03/30 07:50:11;;;;;;;25.85;14.70;;;;;;;6.19;75.80;100635.09;4599561;31;20120;-80
2022/03/30 07:52:37;;;;;;;25.17;15.60;;;;;;;5.43;75.71;100519.94;4599287;31;20056;-73
2022/03/30 07:59:09;;;;;;;24.88;14.02;;;;;;;6.25;75.83;100637.38;4612826;30;20053;-77
2022/03/30 08:01:51;;;;;;;26.75;14.18;;;;;;;5.91;75.54;100566.41;4634675;30;20186;-76
2022/03/30 08:10:13;;;;;;;24.17;13.98;;;;;;;5.48;74.97;100483.88;4685608;30;20104;-80
2022/03/30 08:12:47;;;;;;;26.73;14.23;;;;;;;6.41;74.57;100616.97;4684840;30;20046;-75
2022/03/30 08:15:38;;;;;;;20.15;12.27;;;;;;;6.70;75.35;100639.44;4669683;30;20077;-77
2022/03/30 08:18:08;;;;;;;20.73;12.13;;;;;;;5.56;73.01;100445.91;4685039;30;20034;-77
2022/03/30 08:23:18;;;;;;;21.42;13.68;;;;;;;6.57;74.09;100569.94;4685112;30;20053;-74
2022/03/30 08:25:44;;;;;;;20.80;12.13;;;;;;;7.07;73.23;100640.13;4685274;30;20022;-81
2022/03/30 08:28:28;;;;;;;20.85;12.52;;;;;;;7.03;73.25;100629.22;4684817;30;20041;-77
2022/03/30 08:34:25;;;;;;;20.00;12.60;;;;;;;6.49;72.04;100494.28;4685043;30;20053;-76
2022/03/30 08:36:51;;;;;;;21.02;13.70;;;;;;;7.01;72.93;100561.72;4684989;30;20034;-74
2022/03/30 08:39:18;;;;;;;18.98;12.60;;;;;;;7.10;72.04;100556.09;4684951;30;20038;-76
2022/03/30 08:41:59;;;;;;;20.42;12.70;;;;;;;7.55;71.86;100630.78;4684385;30;20198;-76
2022/03/30 08:44:31;;;;;;;21.67;13.75;;;;;;;7.46;72.37;100629.53;4684757;30;20052;-75
2022/03/30 08:47:11;;;;;;;23.58;13.93;;;;;;;7.38;71.83;100617.09;4684939;30;20037;-77
2022/03/30 08:49:37;;;;;;;26.00;17.45;;;;;;;7.30;71.60;100601.28;4685166;30;20109;-76
2022/03/30 08:52:06;;;;;;;24.52;15.27;;;;;;;7.36;71.79;100600.09;4684249;30;20034;-75
2022/03/30 08:54:32;;;;;;;23.17;13.00;;;;;;;7.53;71.61;100623.16;4684442;30;20034;-74
2022/03/30 08:57:00;;;;;;;20.75;12.40;;;;;;;7.49;71.39;100603.69;4684532;30;20053;-75
2022/03/30 08:59:28;;;;;;;18.80;12.82;;;;;;;7.55;71.08;100608.47;4684633;30;20041;-76
2022/03/30 09:09:36;;;;;;;21.45;12.80;;;;;;;7.90;70.00;100616.84;4581327;31;20443;-74
2022/03/30 09:12:10;;;;;;;19.30;12.30;;;;;;;7.39;69.49;100522.88;4581598;31;20131;-75
2022/03/30 09:14:39;;;;;;;19.85;13.00;;;;;;;7.95;69.43;100596.00;4567898;31;20047;-76
2022/03/30 09:17:08;;;;;;;19.80;13.30;;;;;;;8.08;69.56;100609.88;4581729;31;20128;-75
2022/03/30 09:19:40;;;;;;;19.67;11.48;;;;;;;8.11;68.75;100609.69;4581576;31;20457;-75
2022/03/30 09:22:10;;;;;;;20.20;12.27;;;;;;;8.09;69.03;100602.97;4581476;31;20049;-76
2022/03/30 09:24:38;;;;;;;20.20;12.45;;;;;;;7.82;68.60;100580.44;4581464;31;20044;-75
2022/03/30 09:27:13;;;;;;;20.35;11.95;;;;;;;7.98;69.24;100601.84;4581417;31;20092;-75
2022/03/30 09:29:39;;;;;;;18.83;12.35;;;;;;;7.96;68.99;100584.81;4581057;31;20053;-76
2022/03/30 09:32:08;;;;;;;18.92;11.82;;;;;;;8.11;68.41;100598.56;4581190;31;20091;-76
2022/03/30 09:34:35;;;;;;;19.80;12.07;;;;;;;7.94;69.50;100553.22;4581352;31;20076;-75
2022/03/30 09:37:01;;;;;;;22.17;11.82;;;;;;;8.23;68.55;100592.72;4609970;31;20107;-76
2022/03/30 09:39:33;;;;;;;21.35;12.88;;;;;;;8.35;68.83;100592.03;4614263;31;20044;-75
2022/03/30 09:42:00;;;;;;;18.27;11.75;;;;;;;7.96;68.19;100507.69;4635745;30;20051;-76
2022/03/30 09:44:54;;;;;;;21.73;13.00;;;;;;;8.50;68.26;100585.19;4701332;25;20050;-75
2022/03/30 09:47:38;;;;;;;20.23;12.35;;;;;;;8.43;67.53;100566.72;4683767;30;20034;-76
2022/03/30 09:50:09;;;;;;;24.40;14.82;;;;;;;8.03;68.04;100514.13;4683909;30;20034;-76
2022/03/30 09:52:37;;;;;;;21.80;12.38;;;;;;;8.48;67.89;100571.59;4683667;30;20034;-76
2022/03/30 09:55:05;;;;;;;19.60;12.65;;;;;;;8.59;67.84;100579.53;4683666;30;20040;-76
2022/03/30 09:57:43;;;;;;;18.17;12.18;;;;;;;8.68;67.82;100573.84;4683497;30;20042;-80
2022/03/30 10:00:28;;;;;;;21.17;15.50;;;;;;;8.75;67.34;100567.41;4683687;30;20033;-76
2022/03/30 10:03:30;;;;;;;20.60;12.10;;;;;;;8.79;67.63;100566.28;4682892;30;20042;-76
2022/03/30 10:06:09;;;;;;;19.98;13.02;;;;;;;8.46;67.37;100512.50;4683135;30;20488;-76
2022/03/30 10:11:44;;;;;;;17.23;11.95;;;;;;;8.97;65.36;100573.84;4657932;30;20048;-76
2022/03/30 10:14:19;;;;;;;20.92;12.93;;;;;;;8.59;65.64;100500.56;4683298;30;20483;-75
2022/03/30 10:16:54;;;;;;;19.00;12.93;;;;;;;8.66;66.10;100506.19;4683048;30;20543;-77
2022/03/30 10:19:25;;;;;;;19.80;12.57;;;;;;;8.15;65.68;100402.81;4683324;30;20042;-77
2022/03/30 10:22:34;;;;;;;20.38;13.05;;;;;;;8.80;64.76;100495.84;4683249;30;20041;-76
2022/03/30 10:25:36;;;;;;;16.65;11.90;;;;;;;9.18;64.56;100557.91;4682935;30;20546;-81
2022/03/30 10:28:54;;;;;;;19.25;11.73;;;;;;;9.16;64.54;100549.44;4683126;30;20045;-77
2022/03/30 10:32:13;;;;;;;16.92;11.60;;;;;;;9.25;64.66;100550.63;4682822;30;20100;-77
2022/03/30 10:45:39;;;;;;;16.40;10.95;;;;;;;8.42;63.82;100369.50;4652332;30;20517;-78
2022/03/30 10:48:47;;;;;;;17.23;11.32;;;;;;;9.59;62.33;100533.88;4648643;30;20049;-79
2022/03/30 10:51:21;;;;;;;18.38;11.05;;;;;;;8.48;62.43;100361.41;4648741;30;20038;-78
2022/03/30 10:53:51;;;;;;;18.33;11.60;;;;;;;9.08;62.53;100437.50;4648746;30;20512;-83
2022/03/30 10:56:26;;;;;;;17.30;11.10;;;;;;;9.79;62.00;100524.88;4648547;30;20389;-77
2022/03/30 10:58:52;;;;;;;17.45;12.10;;;;;;;9.85;61.82;100521.91;4648679;30;20073;-77
2022/03/30 11:01:34;;;;;;;20.35;12.10;;;;;;;9.82;62.15;100518.69;4648365;30;20065;-87
2022/03/30 11:04:04;;;;;;;15.85;10.50;;;;;;;9.88;61.63;100513.97;4648521;30;20042;-77
2022/03/30 11:06:55;;;;;;;15.52;10.70;;;;;;;9.75;61.11;100458.97;4648393;30;20035;-79
2022/03/30 11:09:30;;;;;;;15.77;10.82;;;;;;;9.11;60.05;100339.41;4648448;30;20035;-78
2022/03/30 11:12:12;;;;;;;17.02;10.07;;;;;;;9.71;60.64;100418.81;4648241;30;20046;-79
2022/03/30 11:14:41;;;;;;;14.40;9.82;;;;;;;9.96;58.79;100475.59;4648032;30;20042;-78
2022/03/30 11:17:15;;;;;;;16.75;10.48;;;;;;;9.63;59.99;100429.63;4648277;30;20039;-79
2022/03/30 11:19:57;;;;;;;16.40;10.27;;;;;;;9.89;60.68;100484.66;4648232;30;20042;-78
2022/03/30 11:25:52;;;;;;;16.67;10.93;;;;;;;8.86;61.39;100317.00;4648587;30;20114;-77
2022/03/30 11:28:40;;;;;;;17.50;10.43;;;;;;;9.59;60.70;100422.19;4648454;30;20378;-78
2022/03/30 11:31:30;;;;;;;14.75;9.18;;;;;;;9.90;60.02;100482.91;4647991;30;20041;-78
2022/03/30 11:34:30;;;;;;;16.90;11.05;;;;;;;9.87;60.21;100478.78;4648320;30;20057;-77
2022/03/30 11:36:58;;;;;;;15.20;10.02;;;;;;;9.52;59.55;100415.78;4648421;30;20109;-79
2022/03/30 11:39:41;;;;;;;15.70;9.90;;;;;;;9.58;60.74;100410.25;4648372;30;20154;-77
2022/03/30 11:42:06;;;;;;;16.55;10.55;;;;;;;9.54;59.85;100399.31;4648161;30;20078;-86
2022/03/30 11:47:25;;;;;;;15.55;11.02;;;;;;;10.20;60.28;100455.06;4648225;30;20054;-85
2022/03/30 11:49:53;;;;;;;16.98;10.98;;;;;;;10.19;58.67;100443.09;4648177;30;20039;-77
2022/03/30 11:52:19;;;;;;;14.43;9.40;;;;;;;9.81;58.87;100376.03;4648126;30;20401;-83
2022/03/30 11:54:47;;;;;;;17.05;11.32;;;;;;;9.43;58.78;100306.38;4648022;30;20066;-79
2022/03/30 11:57:13;;;;;;;13.45;9.75;;;;;;;10.01;58.40;100403.88;4647434;30;20031;-79
2022/03/30 11:59:39;;;;;;;15.50;10.07;;;;;;;10.18;57.00;100433.72;4648759;30;20500;-75
2022/03/30 12:02:14;;;;;;;14.07;9.77;;;;;;;10.18;58.87;100430.31;4648108;30;20047;-75
2022/03/30 12:04:39;;;;;;;15.45;9.38;;;;;;;10.14;56.31;100419.38;4648217;30;20392;-75
2022/03/30 12:07:04;;;;;;;14.63;9.35;;;;;;;10.26;56.29;100446.94;4648221;30;20110;-82
2022/03/30 12:09:30;;;;;;;14.68;9.68;;;;;;;10.32;56.98;100437.94;4647947;30;20524;-79
2022/03/30 12:11:55;;;;;;;14.60;10.10;;;;;;;10.14;56.85;100408.22;4647952;30;20492;-79
2022/03/30 12:14:27;;;;;;;14.32;10.30;;;;;;;10.36;57.80;100428.25;4648158;30;20117;-77
2022/03/30 12:17:01;;;;;;;17.48;11.15;;;;;;;10.56;57.43;100432.88;4647775;30;20102;-79
2022/03/30 12:20:05;;;;;;;15.05;10.52;;;;;;;10.67;57.44;100432.97;4648005;30;20039;-85
2022/03/30 12:40:00;;;;;;;;;;;;;;;;;;;;;
2022/03/30 12:50:23;;;;;;;15.77;10.15;;;;;;;9.99;55.06;100224.34;4533533;31;20139;-83
2022/03/30 12:56:15;;;;;;;14.35;8.25;;;;;;;11.40;53.03;100390.69;4454020;32;19983;-82
2022/03/30 13:22:24;;;;;;;11.48;7.20;;;;;;;11.42;50.31;100319.88;4742047;25;20031;-86
2022/03/30 13:59:18;;;;;;;9.05;6.40;;;;;;;11.09;47.17;100262.91;4668632;30;20076;-81
2022/03/30 14:02:14;;;;;;;9.05;6.10;;;;;;;11.41;48.08;100310.47;4683566;30;20534;-82
2022/03/30 14:12:35;;;;;;;10.25;6.50;;;;;;;11.70;46.95;100304.84;4683634;30;20137;-86
2022/03/30 14:29:32;;;;;;;12.30;7.07;;;;;;;11.98;47.78;100293.22;4676353;30;20140;-83
2022/03/30 14:32:37;;;;;;;11.57;7.60;;;;;;;11.07;48.88;100112.34;4682853;30;20504;-82
2022/03/30 14:35:15;;;;;;;14.98;7.53;;;;;;;11.83;47.88;100214.22;4666970;30;20057;-80
2022/03/30 14:37:43;;;;;;;11.68;6.93;;;;;;;12.23;46.78;100281.81;4683051;30;20042;-77
2022/03/30 14:40:09;;;;;;;13.85;7.65;;;;;;;11.66;47.32;100199.97;4682996;30;20030;-76
2022/03/30 14:42:37;;;;;;;11.65;7.78;;;;;;;11.99;46.62;100280.16;4682471;30;20064;-76
2022/03/30 14:45:04;;;;;;;10.43;7.80;;;;;;;11.87;46.72;100275.94;4681476;30;20599;-85
2022/03/30 14:47:32;;;;;;;12.57;7.43;;;;;;;11.48;47.08;100231.47;4682562;30;20029;-81
2022/03/30 14:49:57;;;;;;;12.70;8.05;;;;;;;11.73;48.23;100258.88;4682438;30;20037;-77
2022/03/30 14:52:29;;;;;;;12.60;7.32;;;;;;;11.20;47.76;100162.13;4682762;30;20045;-81
2022/03/30 14:54:59;;;;;;;;;;;;;;;12.01;49.70;100274.91;4683090;30;20535;-77
2022/03/30 14:57:51;;;;;;;10.25;6.65;;;;;;;11.64;48.67;100246.66;4682638;30;19920;-77
2022/03/30 15:00:17;;;;;;;10.75;7.13;;;;;;;11.38;49.00;100204.69;4682305;30;20512;-82
2022/03/30 15:02:42;;;;;;;11.20;7.28;;;;;;;11.64;48.83;100276.88;4666847;30;20053;-82
2022/03/30 15:05:16;;;;;;;12.30;7.57;;;;;;;11.46;50.22;100268.72;4682709;30;20041;-76
2022/03/30 15:07:43;;;;;;;11.77;7.40;;;;;;;11.15;49.74;100227.09;4682542;30;20133;-77
2022/03/30 15:20:00;;;;;;;11.65;7.30;;;;;;;10.67;48.55;100106.78;4681459;30;20041;-74